Time;durP1;ratioP1;P1;durP2;ratioP2;P2;SDS_P1;SDS_P2;PMS_P1;PMS_P2;Temp;Humidity;BMP_temperature;BMP_pressure;BME280_temperature;BME280_humidity;BME280_pressure;Samples;Min_cycle;Max_cycle;Signal;HPM_P1;HPM_P2
2022/11/06 00:02:51;;;;;;;7.97;3.97;;;;;;;;;;21005654;28;20052;-70
2022/11/06 00:12:53;;;;;;;20.40;8.07;;;;;;;;;;21004488;28;20107;-69
2022/11/06 00:22:55;;;;;;;9.00;4.15;;;;;;;;;;21002124;28;20052;-69
2022/11/06 00:32:57;;;;;;;7.22;2.90;;;;;;;;;;21000916;28;20059;-69
2022/11/06 00:42:59;;;;;;;11.00;4.82;;;;;;;;;;21000619;28;20102;-69
2022/11/06 00:53:02;;;;;;;8.10;4.72;;;;;;;;;;21000453;28;20542;-69
2022/11/06 01:03:04;;;;;;;8.73;3.42;;;;;;;;;;20999015;28;20045;-67
2022/11/06 01:13:06;;;;;;;6.53;3.30;;;;;;;;;;20998242;28;20052;-69
2022/11/06 01:23:09;;;;;;;6.28;3.40;;;;;;;;;;20997005;28;20048;-69
2022/11/06 01:33:11;;;;;;;8.32;3.58;;;;;;;;;;20996638;28;20052;-66
2022/11/06 01:43:15;;;;;;;6.30;3.03;;;;;;;;;;20996083;28;20053;-69
2022/11/06 01:53:17;;;;;;;5.70;2.70;;;;;;;;;;20995976;28;20052;-66
2022/11/06 02:03:19;;;;;;;5.40;2.83;;;;;;;;;;20995850;28;20060;-66
2022/11/06 02:13:22;;;;;;;6.18;3.38;;;;;;;;;;20995583;28;20072;-70
2022/11/06 02:23:51;;;;;;;7.93;3.10;;;;;;;;;;20995012;28;20044;-65
2022/11/06 02:34:00;;;;;;;8.25;3.38;;;;;;;;;;20993329;28;20139;-66
2022/11/06 02:44:10;;;;;;;8.30;2.85;;;;;;;;;;20994584;28;20102;-69
2022/11/06 02:54:19;;;;;;;6.00;2.97;;;;;;;;;;21008391;28;20048;-69
2022/11/06 03:04:40;;;;;;;10.20;4.18;;;;;;;;;;21008091;28;20131;-69
2022/11/06 03:14:57;;;;;;;9.57;3.17;;;;;;;;;;21007269;28;20048;-66
2022/11/06 03:25:12;;;;;;;8.50;3.47;;;;;;;;;;21006755;28;20131;-67
2022/11/06 03:35:22;;;;;;;5.68;2.85;;;;;;;;;;21005649;28;20045;-67
2022/11/06 03:45:29;;;;;;;5.38;3.20;;;;;;;;;;21004886;28;20159;-68
2022/11/06 03:55:46;;;;;;;5.40;2.90;;;;;;;;;;21004217;28;20055;-68
2022/11/06 04:06:12;;;;;;;5.57;3.22;;;;;;;;;;21003686;28;20412;-65
2022/11/06 04:16:16;;;;;;;7.18;3.47;;;;;;;;;;21002321;28;20457;-67
2022/11/06 04:26:38;;;;;;;5.00;2.88;;;;;;;;;;21002071;28;20049;-67
2022/11/06 04:36:59;;;;;;;5.18;2.88;;;;;;;;;;21000958;28;20048;-68
2022/11/06 04:47:06;;;;;;;6.43;3.03;;;;;;;;;;20998234;28;20052;-66
2022/11/06 04:57:10;;;;;;;4.00;2.42;;;;;;;;;;20997818;28;20045;-67
2022/11/06 05:07:15;;;;;;;5.53;3.20;;;;;;;;;;20997882;28;20056;-69
2022/11/06 05:17:17;;;;;;;4.97;3.13;;;;;;;;;;20996588;28;20132;-68
2022/11/06 05:27:19;;;;;;;6.53;2.70;;;;;;;;;;20996904;28;20048;-68
2022/11/06 05:37:21;;;;;;;5.57;3.05;;;;;;;;;;20997541;28;20105;-68
2022/11/06 05:47:23;;;;;;;5.78;3.10;;;;;;;;;;20996437;28;20053;-66
2022/11/06 05:57:25;;;;;;;6.65;2.85;;;;;;;;;;20996071;28;20041;-69
2022/11/06 06:07:27;;;;;;;4.53;2.70;;;;;;;;;;20996022;28;20056;-67
2022/11/06 06:17:30;;;;;;;5.88;2.60;;;;;;;;;;20995230;28;20102;-68
2022/11/06 06:27:31;;;;;;;6.20;2.60;;;;;;;;;;21009919;28;20048;-65
2022/11/06 06:37:33;;;;;;;5.03;2.60;;;;;;;;;;21010424;28;20530;-68
2022/11/06 06:47:35;;;;;;;4.35;2.75;;;;;;;;;;21009233;28;20538;-67
2022/11/06 06:57:37;;;;;;;4.85;2.72;;;;;;;;;;21009274;28;20041;-67
2022/11/06 07:07:39;;;;;;;5.00;2.88;;;;;;;;;;21008451;28;20049;-66
2022/11/06 07:17:41;;;;;;;5.25;2.63;;;;;;;;;;21007522;28;20137;-68
2022/11/06 07:27:44;;;;;;;5.43;2.53;;;;;;;;;;21006668;28;20059;-67
2022/11/06 07:37:46;;;;;;;6.72;2.67;;;;;;;;;;21004973;28;20051;-68
2022/11/06 07:47:49;;;;;;;4.53;2.70;;;;;;;;;;21004809;28;20496;-67
2022/11/06 07:57:51;;;;;;;6.10;2.70;;;;;;;;;;21005205;28;20055;-65
2022/11/06 08:07:57;;;;;;;9.07;3.28;;;;;;;;;;21003744;28;20405;-68
2022/11/06 08:18:00;;;;;;;5.88;3.40;;;;;;;;;;21002533;28;20048;-67
2022/11/06 08:28:02;;;;;;;8.20;3.78;;;;;;;;;;21001344;28;20102;-70
2022/11/06 08:38:04;;;;;;;7.25;3.85;;;;;;;;;;21001076;28;20524;-70
2022/11/06 08:48:07;;;;;;;8.02;3.88;;;;;;;;;;21000013;28;20066;-70
2022/11/06 08:58:09;;;;;;;7.88;4.10;;;;;;;;;;21000229;28;20048;-70
2022/11/06 09:08:11;;;;;;;9.02;3.90;;;;;;;;;;20998738;28;20052;-69
2022/11/06 09:18:13;;;;;;;9.43;4.20;;;;;;;;;;20998357;28;20041;-68
2022/11/06 09:28:16;;;;;;;9.38;4.32;;;;;;;;;;20999932;28;20049;-70
2022/11/06 09:38:19;;;;;;;11.30;4.97;;;;;;;;;;21001928;28;20406;-68
2022/11/06 09:48:28;;;;;;;6.13;3.72;;;;;;;;;;20996185;28;20142;-70
2022/11/06 09:58:36;;;;;;;7.47;3.83;;;;;;;;;;20995864;28;20473;-69
2022/11/06 10:08:41;;;;;;;6.70;3.80;;;;;;;;;;20994758;28;20309;-68
2022/11/06 10:18:43;;;;;;;9.10;3.75;;;;;;;;;;20994507;28;20044;-70
2022/11/06 10:28:52;;;;;;;7.85;3.95;;;;;;;;;;20994852;28;20451;-67
2022/11/06 10:38:55;;;;;;;9.52;4.43;;;;;;;;;;20993343;28;20041;-69
2022/11/06 10:49:04;;;;;;;6.82;3.40;;;;;;;;;;20993068;28;20114;-70
2022/11/06 10:59:06;;;;;;;11.35;4.03;;;;;;;;;;20993800;28;20127;-68
2022/11/06 11:09:29;;;;;;;8.93;4.30;;;;;;;;;;20998888;28;20048;-71
2022/11/06 11:19:36;;;;;;;9.90;4.68;;;;;;;;;;21006586;28;20147;-69
2022/11/06 11:29:44;;;;;;;10.00;5.07;;;;;;;;;;21007922;28;20049;-71
2022/11/06 11:39:46;;;;;;;16.70;5.53;;;;;;;;;;21007344;28;20048;-69
2022/11/06 11:49:50;;;;;;;11.38;6.32;;;;;;;;;;21003834;28;20064;-70
2022/11/06 11:59:59;;;;;;;11.77;5.68;;;;;;;;;;21004582;28;20071;-70
2022/11/06 12:10:02;;;;;;;7.82;4.50;;;;;;;;;;21003108;28;20095;-69
2022/11/06 12:20:10;;;;;;;11.10;6.22;;;;;;;;;;21002386;28;20403;-69
2022/11/06 12:30:14;;;;;;;11.40;5.07;;;;;;;;;;21001416;28;20057;-67
2022/11/06 12:40:20;;;;;;;8.63;4.45;;;;;;;;;;21000469;28;20102;-66
2022/11/06 12:50:44;;;;;;;6.28;3.55;;;;;;;;;;20999322;28;20056;-69
2022/11/06 13:00:59;;;;;;;8.45;3.85;;;;;;;;;;20998883;28;20500;-67
2022/11/06 13:11:07;;;;;;;7.50;3.67;;;;;;;;;;20997751;28;20052;-66
2022/11/06 13:21:11;;;;;;;;;;;;;;;;;;21014114;28;20079;-65
2022/11/06 13:31:16;;;;;;;10.20;3.70;;;;;;;;;;20996701;28;20434;-69
2022/11/06 13:41:21;;;;;;;9.25;3.33;;;;;;;;;;20996992;28;20045;-69
2022/11/06 13:51:26;;;;;;;10.10;4.10;;;;;;;;;;20994937;28;20056;-69
2022/11/06 14:01:36;;;;;;;9.95;3.92;;;;;;;;;;20995783;28;20067;-68
2022/11/06 14:11:39;;;;;;;;;;;;;;;;;;20995940;28;20424;-69
2022/11/06 14:21:51;;;;;;;7.05;2.97;;;;;;;;;;20995058;28;19969;-70
2022/11/06 14:32:09;;;;;;;9.70;5.28;;;;;;;;;;20994578;28;20059;-67
2022/11/06 14:42:10;;;;;;;5.50;2.97;;;;;;;;;;20998214;28;20049;-68
2022/11/06 14:52:14;;;;;;;5.75;3.10;;;;;;;;;;21008880;28;20507;-70
2022/11/06 15:02:19;;;;;;;4.47;2.22;;;;;;;;;;21009066;28;20463;-68
2022/11/06 15:12:42;;;;;;;3.67;1.92;;;;;;;;;;21007998;28;20109;-69
2022/11/06 15:22:52;;;;;;;4.18;2.08;;;;;;;;;;21006757;28;20048;-67
2022/11/06 15:32:55;;;;;;;5.28;1.75;;;;;;;;;;21006862;28;20052;-65
2022/11/06 15:43:22;;;;;;;3.47;1.80;;;;;;;;;;21006303;28;20048;-66
2022/11/06 15:53:26;;;;;;;5.18;1.90;;;;;;;;;;20997872;28;20135;-69
2022/11/06 16:03:30;;;;;;;3.60;1.52;;;;;;;;;;21003896;28;20127;-65
2022/11/06 16:13:33;;;;;;;3.58;1.52;;;;;;;;;;21002461;28;20052;-67
2022/11/06 16:23:41;;;;;;;5.35;2.45;;;;;;;;;;21002792;28;20055;-70
2022/11/06 16:33:57;;;;;;;5.75;1.70;;;;;;;;;;21000553;28;20048;-70
2022/11/06 16:44:18;;;;;;;3.28;1.67;;;;;;;;;;21000635;28;20404;-67
2022/11/06 16:54:20;;;;;;;4.18;1.80;;;;;;;;;;20998706;28;20059;-70
2022/11/06 17:04:28;;;;;;;3.35;1.98;;;;;;;;;;20997429;28;20071;-70
2022/11/06 17:14:31;;;;;;;6.80;2.63;;;;;;;;;;20997929;28;20076;-68
2022/11/06 17:24:33;;;;;;;8.05;4.13;;;;;;;;;;20997060;28;20140;-69
2022/11/06 17:34:36;;;;;;;6.32;2.95;;;;;;;;;;20997233;28;20127;-65
2022/11/06 17:44:38;;;;;;;5.53;3.05;;;;;;;;;;20995279;28;20098;-70
2022/11/06 17:54:41;;;;;;;6.00;2.70;;;;;;;;;;20995703;28;20051;-68
2022/11/06 18:04:45;;;;;;;6.30;2.78;;;;;;;;;;20995841;28;20381;-69
2022/11/06 18:14:47;;;;;;;5.95;2.97;;;;;;;;;;20995473;28;20512;-69
2022/11/06 18:24:48;;;;;;;7.60;2.72;;;;;;;;;;21011124;28;20053;-69
2022/11/06 18:34:50;;;;;;;9.70;3.78;;;;;;;;;;21011203;28;20052;-67
2022/11/06 18:44:52;;;;;;;7.78;3.15;;;;;;;;;;21010452;28;20400;-71
2022/11/06 18:54:54;;;;;;;7.40;2.50;;;;;;;;;;21009872;28;20541;-66
2022/11/06 19:04:56;;;;;;;7.20;2.60;;;;;;;;;;21008722;28;20378;-66
2022/11/06 19:14:57;;;;;;;6.85;2.63;;;;;;;;;;21006940;28;20090;-65
2022/11/06 19:24:59;;;;;;;7.47;2.63;;;;;;;;;;21005770;28;20181;-63
2022/11/06 19:35:00;;;;;;;7.70;3.17;;;;;;;;;;21004277;28;20045;-64
2022/11/06 19:45:04;;;;;;;7.95;3.35;;;;;;;;;;21004403;28;20091;-64
2022/11/06 19:55:06;;;;;;;4.07;2.33;;;;;;;;;;21003493;28;20044;-66
2022/11/06 20:05:08;;;;;;;19.13;8.65;;;;;;;;;;21002608;28;20135;-70
2022/11/06 20:15:09;;;;;;;67.97;24.85;;;;;;;;;;21002288;28;20140;-66
2022/11/06 20:25:11;;;;;;;12.23;5.60;;;;;;;;;;21001258;28;20048;-69
2022/11/06 20:35:15;;;;;;;11.20;4.57;;;;;;;;;;21001317;28;20044;-70
2022/11/06 20:45:18;;;;;;;8.90;3.95;;;;;;;;;;21000028;28;20171;-70
2022/11/06 20:55:19;;;;;;;9.90;4.32;;;;;;;;;;20999336;28;20124;-67
2022/11/06 21:05:21;;;;;;;8.02;4.28;;;;;;;;;;20999124;28;20504;-67
2022/11/06 21:15:23;;;;;;;11.07;5.28;;;;;;;;;;20999201;28;20076;-67
2022/11/06 21:25:24;;;;;;;9.02;5.07;;;;;;;;;;20997324;28;20489;-66
2022/11/06 21:35:26;;;;;;;16.50;6.93;;;;;;;;;;20996950;28;20044;-65
2022/11/06 21:45:28;;;;;;;17.85;7.13;;;;;;;;;;20996985;28;20064;-64
2022/11/06 22:05:49;;;;;;;12.05;6.35;;;;;;;;;;20996215;28;20123;-69
2022/11/06 22:15:51;;;;;;;64.40;22.52;;;;;;;;;;20994772;28;20454;-66
2022/11/06 22:25:52;;;;;;;75.13;24.17;;;;;;;;;;20994221;28;20113;-67
2022/11/06 22:36:04;;;;;;;16.73;7.07;;;;;;;;;;20994572;28;20492;-69
2022/11/06 22:46:07;;;;;;;9.93;5.00;;;;;;;;;;20992858;28;20059;-70
2022/11/06 22:56:11;;;;;;;9.38;4.70;;;;;;;;;;20992542;28;20059;-70
2022/11/06 23:06:13;;;;;;;7.88;4.00;;;;;;;;;;21001525;28;20132;-69
2022/11/06 23:26:44;;;;;;;7.25;3.58;;;;;;;;;;21005817;28;20056;-66
2022/11/06 23:36:46;;;;;;;7.22;3.30;;;;;;;;;;21005168;28;20051;-65
2022/11/06 23:46:47;;;;;;;7.28;4.15;;;;;;;;;;21004942;28;20056;-69
2022/11/06 23:56:49;;;;;;;5.32;3.00;;;;;;;;;;21005241;28;20040;-68
